createdAt,value
2019-06-07T00:02:02.488Z,100615.97
2019-06-07T00:04:33.737Z,100615.97
2019-06-07T00:07:04.002Z,100620.34
2019-06-07T00:09:35.119Z,100620.34
2019-06-07T00:12:08.933Z,100623.86
2019-06-07T00:14:37.706Z,100626.44
2019-06-07T00:17:10.540Z,100625.52
2019-06-07T00:19:40.923Z,100621.05
2019-06-07T00:22:23.702Z,100613.89
2019-06-07T00:24:44.575Z,100599.77
2019-06-07T00:27:15.768Z,100605.09
2019-06-07T00:29:47.127Z,100613.01
2019-06-07T00:32:19.990Z,100609.48
2019-06-07T00:34:49.494Z,100605.09
2019-06-07T00:37:23.132Z,100603.28
2019-06-07T00:40:12.779Z,100598.00
2019-06-07T00:42:24.585Z,100601.45
2019-06-07T00:44:55.015Z,100605.81
2019-06-07T00:47:25.927Z,100606.70
2019-06-07T00:49:56.642Z,100598.84
2019-06-07T00:55:01.014Z,100603.28
2019-06-07T00:57:31.981Z,100598.77
2019-06-07T01:00:02.274Z,100604.89
2019-06-07T01:02:34.637Z,100603.93
2019-06-07T01:05:06.721Z,100607.49
2019-06-07T01:07:37.564Z,100609.21
2019-06-07T01:10:09.446Z,100609.17
2019-06-07T01:12:41.370Z,100606.49
2019-06-07T01:15:15.775Z,100606.49
2019-06-07T01:18:25.981Z,100602.86
2019-06-07T01:20:16.743Z,100597.56
2019-06-07T01:22:48.547Z,100599.33
2019-06-07T01:25:23.836Z,100599.30
2019-06-07T01:27:53.235Z,100602.89
2019-06-07T01:30:26.618Z,100601.13
2019-06-07T01:32:56.690Z,100603.77
2019-06-07T01:35:29.587Z,100615.25
2019-06-07T01:37:59.064Z,100626.65
2019-06-07T01:40:32.595Z,100622.25
2019-06-07T01:43:02.468Z,100630.17
2019-06-07T01:45:33.387Z,100623.25
2019-06-07T01:48:04.563Z,100643.48
2019-06-07T01:50:35.198Z,100647.89
2019-06-07T01:53:06.028Z,100643.48
2019-06-07T01:55:36.255Z,100646.21
2019-06-07T01:58:07.016Z,100645.33
2019-06-07T02:00:38.114Z,100635.66
2019-06-07T02:03:09.180Z,100639.22
2019-06-07T02:05:40.103Z,100641.85
2019-06-07T02:08:10.389Z,100648.89
2019-06-07T02:10:40.681Z,100662.05
2019-06-07T02:13:11.650Z,100661.13
2019-06-07T02:15:42.945Z,100661.13
2019-06-07T02:18:13.483Z,100676.97
2019-06-07T02:20:43.686Z,100665.53
2019-06-07T02:23:14.680Z,100670.77
2019-06-07T02:25:50.238Z,100676.93
2019-06-07T02:28:44.764Z,100676.13
2019-06-07T02:30:59.508Z,100675.26
2019-06-07T02:33:24.768Z,100671.70
2019-06-07T02:35:54.130Z,100669.01
2019-06-07T02:38:27.661Z,100668.13
2019-06-07T02:40:56.417Z,100669.00
2019-06-07T02:43:28.259Z,100666.33
2019-06-07T02:46:24.146Z,100672.48
2019-06-07T02:48:39.314Z,100685.69
2019-06-07T02:51:05.448Z,100687.48
2019-06-07T02:53:40.050Z,100687.53
2019-06-07T02:56:37.670Z,100677.90
2019-06-07T02:58:42.207Z,100684.10
2019-06-07T03:01:13.634Z,100678.86
2019-06-07T03:03:45.646Z,100684.14
2019-06-07T03:06:16.159Z,100683.27
2019-06-07T03:08:47.027Z,100694.75
2019-06-07T03:11:17.304Z,100705.36
2019-06-07T03:13:48.635Z,100708.92
2019-06-07T03:16:21.461Z,100712.48
2019-06-07T03:18:52.382Z,100719.53
2019-06-07T03:21:24.070Z,100709.02
2019-06-07T03:23:56.658Z,100709.02
2019-06-07T03:26:30.333Z,100712.61
2019-06-07T03:29:00.039Z,100713.58
2019-06-07T03:31:32.703Z,100718.95
2019-06-07T03:34:02.681Z,100733.08
2019-06-07T03:36:35.368Z,100733.03
2019-06-07T03:39:06.614Z,100741.88
2019-06-07T03:41:49.822Z,100744.48
2019-06-07T03:44:08.943Z,100739.28
2019-06-07T03:46:41.555Z,100740.20
2019-06-07T03:49:11.953Z,100737.52
2019-06-07T03:51:42.181Z,100732.27
2019-06-07T03:54:12.996Z,100732.31
2019-06-07T03:56:44.170Z,100727.98
2019-06-07T03:59:15.007Z,100728.83
2019-06-07T04:01:46.012Z,100723.55
2019-06-07T04:04:16.339Z,100725.38
2019-06-07T04:06:47.519Z,100735.19
2019-06-07T04:09:20.997Z,100730.04
2019-06-07T04:11:51.674Z,100737.16
2019-06-07T04:14:24.403Z,100738.95
2019-06-07T04:16:55.191Z,100734.61
2019-06-07T04:19:25.787Z,100729.42
2019-06-07T04:21:56.845Z,100730.42
2019-06-07T04:24:26.743Z,100727.84
2019-06-07T04:26:58.009Z,100733.19
2019-06-07T04:29:41.269Z,100732.22
2019-06-07T04:32:01.549Z,100728.63
2019-06-07T04:34:37.085Z,100733.08
2019-06-07T04:37:05.363Z,100740.09
2019-06-07T04:39:41.663Z,100736.48
2019-06-07T04:42:10.342Z,100739.13
2019-06-07T04:44:42.779Z,100743.50
2019-06-07T04:47:14.935Z,100746.14
2019-06-07T04:49:47.491Z,100752.37
2019-06-07T04:52:18.231Z,100755.05
2019-06-07T04:54:49.261Z,100751.43
2019-06-07T04:57:19.804Z,100754.99
2019-06-07T05:00:33.923Z,100758.61
2019-06-07T05:02:24.304Z,100748.00
2019-06-07T05:04:54.769Z,100742.80
2019-06-07T05:07:26.563Z,100751.63
2019-06-07T05:09:57.143Z,100746.30
2019-06-07T05:12:27.378Z,100746.30
2019-06-07T05:14:58.725Z,100738.36
2019-06-07T05:17:31.743Z,100752.37
2019-06-07T05:20:02.645Z,100753.27
2019-06-07T05:22:34.895Z,100758.64
2019-06-07T05:25:07.994Z,100767.50
2019-06-07T05:27:44.435Z,100765.73
2019-06-07T05:30:36.427Z,100757.80
2019-06-07T05:32:46.112Z,100753.33
2019-06-07T05:35:16.885Z,100760.28
2019-06-07T05:37:47.205Z,100771.67
2019-06-07T05:40:19.575Z,100752.95
2019-06-07T05:42:50.866Z,100765.44
2019-06-07T05:45:23.309Z,100764.59
2019-06-07T05:47:54.395Z,100767.30
2019-06-07T05:50:39.184Z,100775.34
2019-06-07T05:52:58.668Z,100772.63
2019-06-07T05:55:30.132Z,100771.75
2019-06-07T05:58:01.581Z,100780.59
2019-06-07T06:00:35.106Z,100790.36
2019-06-07T06:03:06.285Z,100787.88
2019-06-07T06:05:42.209Z,100794.02
2019-06-07T06:08:10.673Z,100785.28
2019-06-07T06:10:46.099Z,100787.97
2019-06-07T06:13:14.615Z,100786.28
2019-06-07T06:15:56.402Z,100792.44
2019-06-07T06:18:18.036Z,100798.46
2019-06-07T06:21:09.778Z,100806.20
2019-06-07T06:23:22.388Z,100812.16
2019-06-07T06:25:56.950Z,100820.66
2019-06-07T06:28:25.632Z,100824.02
2019-06-07T06:30:56.763Z,100830.00
2019-06-07T06:33:34.570Z,100844.00
2019-06-07T06:36:00.754Z,100841.13
2019-06-07T06:38:31.477Z,100839.37
2019-06-07T06:41:15.061Z,100842.83
2019-06-07T06:43:36.051Z,100848.80
2019-06-07T06:46:07.125Z,100844.34
2019-06-07T06:48:40.755Z,100862.05
2019-06-07T06:51:10.427Z,100859.26
2019-06-07T06:53:42.190Z,100860.96
2019-06-07T06:56:13.431Z,100866.12
2019-06-07T07:01:17.075Z,100870.52
2019-06-07T07:04:07.261Z,100865.34
2019-06-07T07:06:26.345Z,100867.22
2019-06-07T07:08:54.781Z,100872.41
2019-06-07T07:11:26.205Z,100883.95
2019-06-07T07:13:57.721Z,100872.66
2019-06-07T07:16:28.769Z,100870.95
2019-06-07T07:19:00.391Z,100874.63
2019-06-07T07:21:32.207Z,100880.06
2019-06-07T07:24:20.512Z,100884.52
2019-06-07T07:26:36.546Z,100886.75
2019-06-07T07:29:07.630Z,100896.38
2019-06-07T07:31:38.455Z,100886.95
2019-06-07T07:34:34.713Z,100897.58
2019-06-07T07:36:41.688Z,100900.31
2019-06-07T07:39:13.225Z,100908.34
2019-06-07T07:42:12.586Z,100910.11
2019-06-07T07:44:16.859Z,100911.72
2019-06-07T07:46:49.168Z,100910.89
2019-06-07T07:49:19.707Z,100904.72
2019-06-07T07:51:55.064Z,100901.25
2019-06-07T07:54:23.054Z,100889.75
2019-06-07T07:56:56.094Z,100895.23
2019-06-07T07:59:41.269Z,100895.64
2019-06-07T08:01:58.959Z,100892.33
2019-06-07T08:05:12.921Z,100900.26
2019-06-07T08:07:02.432Z,100892.58
2019-06-07T08:09:32.864Z,100887.69
2019-06-07T08:12:03.830Z,100888.86
2019-06-07T08:14:35.175Z,100888.19
2019-06-07T08:17:06.199Z,100882.86
2019-06-07T08:19:36.853Z,100880.22
2019-06-07T08:22:07.350Z,100890.89
2019-06-07T08:24:38.268Z,100884.81
2019-06-07T08:27:25.197Z,100878.00
2019-06-07T08:29:45.560Z,100885.95
2019-06-07T08:32:14.825Z,100892.73
2019-06-07T08:34:44.957Z,100886.66
2019-06-07T08:37:15.717Z,100889.44
2019-06-07T08:39:46.399Z,100888.52
2019-06-07T08:42:25.131Z,100883.95
2019-06-07T08:44:54.307Z,100878.78
2019-06-07T08:47:26.150Z,100886.69
2019-06-07T08:50:04.396Z,100885.05
2019-06-07T08:52:31.086Z,100888.72
2019-06-07T08:55:05.252Z,100887.79
2019-06-07T08:57:37.885Z,100901.86
2019-06-07T09:00:42.329Z,100900.16
2019-06-07T09:02:41.348Z,100900.11
2019-06-07T09:05:12.889Z,100888.70
2019-06-07T09:07:43.340Z,100893.21
2019-06-07T09:10:16.046Z,100895.84
2019-06-07T09:12:49.303Z,100895.06
2019-06-07T09:15:24.125Z,100914.52
2019-06-07T09:18:35.067Z,100917.12
2019-06-07T09:20:36.989Z,100901.22
2019-06-07T09:23:15.712Z,100906.62
2019-06-07T09:25:56.048Z,100908.37
2019-06-07T09:28:19.107Z,100900.53
2019-06-07T09:30:47.383Z,100893.45
2019-06-07T09:33:17.979Z,100892.62
2019-06-07T09:35:49.511Z,100898.80
2019-06-07T09:38:26.504Z,100892.59
2019-06-07T09:40:56.317Z,100893.49
2019-06-07T09:44:00.647Z,100896.14
2019-06-07T09:46:11.150Z,100900.55
2019-06-07T09:51:19.478Z,100904.17
2019-06-07T09:53:43.569Z,100905.05
2019-06-07T09:56:15.910Z,100891.70
2019-06-07T09:58:51.849Z,100889.93
2019-06-07T10:01:20.658Z,100896.16
2019-06-07T10:03:53.033Z,100897.06
2019-06-07T10:06:25.226Z,100904.14
2019-06-07T10:11:31.877Z,100904.13
2019-06-07T10:14:04.943Z,100896.11
2019-06-07T10:16:47.120Z,100904.95
2019-06-07T10:19:11.166Z,100902.29
2019-06-07T10:21:42.964Z,100909.36
2019-06-07T10:24:15.448Z,100906.77
2019-06-07T10:26:48.038Z,100912.11
2019-06-07T10:29:19.669Z,100911.25
2019-06-07T10:31:52.245Z,100915.61
2019-06-07T10:34:24.344Z,100912.05
2019-06-07T10:36:56.622Z,100902.34
2019-06-07T10:39:28.848Z,100912.11
2019-06-07T10:42:00.931Z,100904.09
2019-06-07T10:44:32.536Z,100898.71
2019-06-07T10:47:06.096Z,100899.69
2019-06-07T10:49:38.224Z,100905.92
2019-06-07T10:52:21.365Z,100897.91
2019-06-07T10:54:53.993Z,100898.72
2019-06-07T10:57:26.091Z,100894.13
2019-06-07T10:59:58.297Z,100894.28
2019-06-07T11:02:34.738Z,100897.05
2019-06-07T11:05:10.131Z,100885.53
2019-06-07T11:07:44.926Z,100889.09
2019-06-07T11:10:19.617Z,100888.21
2019-06-07T11:12:55.873Z,100890.79
2019-06-07T11:15:28.469Z,100888.91
2019-06-07T11:17:59.168Z,100890.49
2019-06-07T11:20:31.340Z,100878.84
2019-06-07T11:23:06.701Z,100886.72
2019-06-07T11:25:40.581Z,100874.14
2019-06-07T11:28:12.984Z,100885.06
2019-06-07T11:30:46.582Z,100877.27
2019-06-07T11:33:19.854Z,100873.78
2019-06-07T11:35:52.582Z,100869.33
2019-06-07T11:38:25.105Z,100871.13
2019-06-07T11:40:57.672Z,100870.26
2019-06-07T11:43:29.286Z,100869.33
2019-06-07T11:46:08.972Z,100868.48
2019-06-07T11:48:43.022Z,100866.63
2019-06-07T11:51:16.278Z,100868.38
2019-06-07T11:53:53.304Z,100860.48
2019-06-07T11:56:26.863Z,100860.46
2019-06-07T11:58:59.746Z,100863.98
2019-06-07T12:01:33.275Z,100864.95
2019-06-07T12:04:07.470Z,100858.69
2019-06-07T12:06:49.473Z,100864.84
2019-06-07T12:09:28.036Z,100861.30
2019-06-07T12:12:00.129Z,100863.14
2019-06-07T12:14:49.402Z,100864.88
2019-06-07T12:17:31.891Z,100859.49
2019-06-07T12:20:21.053Z,100855.01
2019-06-07T12:22:53.036Z,100862.88
2019-06-07T12:25:25.848Z,100853.02
2019-06-07T12:28:00.791Z,100858.44
2019-06-07T12:30:32.746Z,100855.62
2019-06-07T12:33:05.025Z,100847.56
2019-06-07T12:35:37.121Z,100840.27
2019-06-07T12:38:08.763Z,100847.25
2019-06-07T12:40:56.633Z,100843.62
2019-06-07T12:43:14.689Z,100840.09
2019-06-07T12:45:46.014Z,100837.43
2019-06-07T12:48:20.633Z,100842.80
2019-06-07T12:50:56.770Z,100845.59
2019-06-07T12:53:50.363Z,100840.31
2019-06-07T12:56:29.775Z,100840.30
2019-06-07T12:59:06.077Z,100837.78
2019-06-07T13:01:37.549Z,100835.98
2019-06-07T13:04:14.384Z,100839.47
2019-06-07T13:06:47.392Z,100830.45
2019-06-07T13:09:36.114Z,100836.58
2019-06-07T13:12:17.771Z,100836.53
2019-06-07T13:15:15.757Z,100826.77
2019-06-07T13:18:15.008Z,100828.50
2019-06-07T13:20:55.004Z,100824.92
2019-06-07T13:23:45.474Z,100820.46
2019-06-07T13:26:38.610Z,100821.37
2019-06-07T13:29:16.552Z,100814.28
2019-06-07T13:31:57.157Z,100817.63
2019-06-07T13:34:29.908Z,100806.75
2019-06-07T13:37:01.945Z,100810.23
2019-06-07T13:40:06.350Z,100801.23
2019-06-07T13:42:50.897Z,100802.16
2019-06-07T13:45:22.546Z,100808.33
2019-06-07T13:48:02.679Z,100803.46
2019-06-07T13:50:36.473Z,100815.69
2019-06-07T13:53:40.754Z,100802.20
2019-06-07T13:56:35.069Z,100809.30
2019-06-07T13:59:09.574Z,100803.47
2019-06-07T14:01:55.877Z,100811.09
2019-06-07T14:04:45.618Z,100805.46
2019-06-07T14:07:28.636Z,100810.77
2019-06-07T14:10:04.433Z,100805.92
2019-06-07T14:12:57.776Z,100800.67
2019-06-07T14:15:40.634Z,100799.00
2019-06-07T14:18:22.517Z,100801.08
2019-06-07T14:21:06.672Z,100804.62
2019-06-07T14:24:12.451Z,100800.24
2019-06-07T14:27:01.782Z,100801.05
2019-06-07T14:29:41.012Z,100795.24
2019-06-07T14:32:28.764Z,100789.63
2019-06-07T14:35:34.959Z,100794.32
2019-06-07T14:38:44.238Z,100796.07
2019-06-07T14:41:38.324Z,100787.97
2019-06-07T14:44:16.389Z,100786.03
2019-06-07T14:46:48.653Z,100795.28
2019-06-07T14:49:30.685Z,100791.91
2019-06-07T14:52:30.736Z,100797.17
2019-06-07T14:55:11.742Z,100800.00
2019-06-07T14:57:42.700Z,100795.06
2019-06-07T15:00:15.981Z,100795.82
2019-06-07T15:02:48.667Z,100801.08
2019-06-07T15:05:43.034Z,100801.72
2019-06-07T15:08:13.900Z,100799.53
2019-06-07T15:10:46.602Z,100792.21
2019-06-07T15:13:17.737Z,100796.47
2019-06-07T15:15:49.905Z,100798.08
2019-06-07T15:18:24.744Z,100789.09
2019-06-07T15:21:01.374Z,100795.16
2019-06-07T15:23:36.203Z,100796.91
2019-06-07T15:29:39.221Z,100790.69
2019-06-07T15:32:10.228Z,100789.61
2019-06-07T15:34:41.294Z,100792.01
2019-06-07T15:37:12.125Z,100788.36
2019-06-07T15:39:42.994Z,100790.79
2019-06-07T15:42:13.804Z,100790.97
2019-06-07T15:47:43.679Z,100789.23
2019-06-07T15:50:14.962Z,100788.99
2019-06-07T15:52:46.142Z,100785.27
2019-06-07T15:55:17.556Z,100789.52
2019-06-07T15:57:48.496Z,100788.01
2019-06-07T16:00:20.960Z,100790.34
2019-06-07T16:02:52.092Z,100785.84
2019-06-07T16:05:23.128Z,100784.34
2019-06-07T16:07:53.900Z,100788.70
2019-06-07T16:10:25.105Z,100789.69
2019-06-07T16:13:00.511Z,100787.06
2019-06-07T16:15:28.968Z,100790.55
2019-06-07T16:17:59.736Z,100789.13
2019-06-07T16:20:30.531Z,100789.19
2019-06-07T16:23:01.761Z,100792.88
2019-06-07T16:25:33.966Z,100790.92
2019-06-07T16:28:06.318Z,100792.77
2019-06-07T16:30:38.415Z,100787.66
2019-06-07T16:33:09.473Z,100791.77
2019-06-07T16:35:41.079Z,100790.55
2019-06-07T16:38:12.027Z,100785.64
2019-06-07T16:40:44.546Z,100787.61
2019-06-07T16:43:18.305Z,100792.16
2019-06-07T16:45:49.156Z,100785.19
2019-06-07T16:48:20.202Z,100788.91
2019-06-07T16:50:51.020Z,100781.86
2019-06-07T16:53:21.966Z,100782.00
2019-06-07T16:55:52.887Z,100779.41
2019-06-07T16:58:23.722Z,100782.98
2019-06-07T17:00:54.738Z,100774.10
2019-06-07T17:03:25.597Z,100777.72
2019-06-07T17:05:56.956Z,100770.69
2019-06-07T17:08:28.180Z,100768.94
2019-06-07T17:10:59.570Z,100767.15
2019-06-07T17:13:33.857Z,100762.66
2019-06-07T17:16:03.579Z,100768.00
2019-06-07T17:18:37.046Z,100760.80
2019-06-07T17:21:07.691Z,100761.64
2019-06-07T17:23:39.144Z,100758.03
2019-06-07T17:26:10.392Z,100760.77
2019-06-07T17:28:41.819Z,100762.52
2019-06-07T17:31:13.754Z,100761.58
2019-06-07T17:33:50.150Z,100750.97
2019-06-07T17:36:21.271Z,100750.97
2019-06-07T17:38:53.840Z,100751.89
2019-06-07T17:41:25.562Z,100744.76
2019-06-07T17:44:00.125Z,100749.29
2019-06-07T17:46:30.324Z,100754.52
2019-06-07T17:49:05.986Z,100757.30
2019-06-07T17:51:37.832Z,100755.47
2019-06-07T17:54:09.697Z,100754.66
2019-06-07T17:56:48.321Z,100761.78
2019-06-07T17:59:26.434Z,100754.79
2019-06-07T18:02:15.607Z,100761.98
2019-06-07T18:04:31.927Z,100770.19
2019-06-07T18:07:07.380Z,100763.16
2019-06-07T18:09:41.788Z,100763.23
2019-06-07T18:12:14.327Z,100770.41
2019-06-07T18:14:47.892Z,100772.24
2019-06-07T18:17:33.694Z,100774.98
2019-06-07T18:19:55.186Z,100778.51
2019-06-07T18:22:29.250Z,100783.88
2019-06-07T18:25:01.896Z,100789.28
2019-06-07T18:27:34.540Z,100789.34
2019-06-07T18:30:11.523Z,100788.50
2019-06-07T18:32:41.481Z,100794.70
2019-06-07T18:35:17.398Z,100794.77
2019-06-07T18:37:56.555Z,100803.69
2019-06-07T18:40:34.190Z,100793.11
2019-06-07T18:43:06.403Z,100791.34
2019-06-07T18:45:44.750Z,100793.14
2019-06-07T18:48:16.820Z,100786.92
2019-06-07T18:50:48.774Z,100790.46
2019-06-07T18:53:23.093Z,100788.73
2019-06-07T18:55:56.236Z,100785.17
2019-06-07T18:58:31.088Z,100786.98
2019-06-07T19:01:01.638Z,100797.66
2019-06-07T19:03:32.686Z,100794.16
2019-06-07T19:06:03.391Z,100798.59
2019-06-07T19:08:33.949Z,100797.75
2019-06-07T19:11:06.900Z,100799.56
2019-06-07T19:13:51.517Z,100797.82
2019-06-07T19:16:25.190Z,100800.48
2019-06-07T19:18:56.150Z,100806.71
2019-06-07T19:21:27.481Z,100806.72
2019-06-07T19:23:58.500Z,100820.88
2019-06-07T19:26:29.858Z,100825.30
2019-06-07T19:29:01.685Z,100827.94
2019-06-07T19:31:32.760Z,100826.98
2019-06-07T19:34:03.782Z,100837.59
2019-06-07T19:36:48.705Z,100852.57
2019-06-07T19:39:49.942Z,100846.34
2019-06-07T19:42:40.021Z,100849.88
2019-06-07T19:45:34.229Z,100855.17
2019-06-07T19:47:52.382Z,100854.28
2019-06-07T19:50:24.439Z,100862.21
2019-06-07T19:53:11.185Z,100867.50
2019-06-07T19:56:10.432Z,100864.84
2019-06-07T19:58:50.649Z,100863.06
2019-06-07T20:01:23.610Z,100855.95
2019-06-07T20:04:25.209Z,100854.95
2019-06-07T20:07:13.396Z,100853.16
2019-06-07T20:09:56.479Z,100852.23
2019-06-07T20:12:46.453Z,100852.18
2019-06-07T20:15:28.553Z,100847.70
2019-06-07T20:18:07.572Z,100854.70
2019-06-07T20:21:00.933Z,100852.89
2019-06-07T20:23:44.808Z,100844.02
2019-06-07T20:26:25.520Z,100844.84
2019-06-07T20:29:05.717Z,100851.91
2019-06-07T20:31:38.968Z,100857.13
2019-06-07T20:34:20.061Z,100851.79
2019-06-07T20:36:52.112Z,100853.56
2019-06-07T20:39:39.870Z,100861.44
2019-06-07T20:42:19.099Z,100860.47
2019-06-07T20:44:53.835Z,100860.37
2019-06-07T20:47:27.631Z,100859.42
2019-06-07T20:53:13.224Z,100858.41
2019-06-07T20:56:09.130Z,100846.83
2019-06-07T20:58:50.534Z,100851.20
2019-06-07T21:01:22.884Z,100845.77
2019-06-07T21:03:56.789Z,100847.42
2019-06-07T21:06:35.495Z,100844.69
2019-06-07T21:09:07.631Z,100849.06
2019-06-07T21:11:40.970Z,100846.41
2019-06-07T21:14:21.765Z,100841.08
2019-06-07T21:17:08.371Z,100840.16
2019-06-07T21:19:48.633Z,100834.80
2019-06-07T21:26:02.742Z,100833.92
2019-06-07T21:28:41.058Z,100829.34
2019-06-07T21:31:36.793Z,100831.85
2019-06-07T21:34:20.565Z,100831.02
2019-06-07T21:36:52.371Z,100828.20
2019-06-07T21:39:29.170Z,100819.30
2019-06-07T21:42:10.231Z,100827.18
2019-06-07T21:44:41.019Z,100824.58
2019-06-07T21:47:14.265Z,100826.30
2019-06-07T21:49:51.892Z,100826.30
2019-06-07T21:52:23.892Z,100821.84
2019-06-07T21:54:59.221Z,100819.16
2019-06-07T21:57:30.542Z,100822.44
2019-06-07T22:00:05.521Z,100819.69
2019-06-07T22:02:37.981Z,100822.23
2019-06-07T22:05:09.768Z,100816.02
2019-06-07T22:07:40.455Z,100812.50
2019-06-07T22:10:12.604Z,100807.13
2019-06-07T22:12:43.482Z,100803.45
2019-06-07T22:15:45.762Z,100808.47
2019-06-07T22:18:21.976Z,100817.08
2019-06-07T22:20:52.942Z,100815.38
2019-06-07T22:23:24.419Z,100814.45
2019-06-07T22:25:55.403Z,100806.30
2019-06-07T22:28:27.609Z,100814.32
2019-06-07T22:30:58.250Z,100804.66
2019-06-07T22:33:30.655Z,100806.48
2019-06-07T22:36:01.238Z,100805.60
2019-06-07T22:38:32.312Z,100803.80
2019-06-07T22:41:03.126Z,100817.78
2019-06-07T22:43:35.584Z,100811.41
2019-06-07T22:46:07.176Z,100815.79
2019-06-07T22:48:37.728Z,100813.21
2019-06-07T22:51:11.400Z,100812.33
2019-06-07T22:53:42.290Z,100807.06
2019-06-07T22:56:14.388Z,100804.31
2019-06-07T22:58:44.838Z,100816.61
2019-06-07T23:05:10.682Z,100809.41
2019-06-07T23:07:42.029Z,100801.42
2019-06-07T23:10:13.417Z,100801.41
2019-06-07T23:12:44.092Z,100796.03
2019-06-07T23:15:18.771Z,100802.87
2019-06-07T23:17:50.019Z,100803.74
2019-06-07T23:20:21.011Z,100800.17
2019-06-07T23:22:51.804Z,100788.86
2019-06-07T23:25:24.469Z,100796.72
2019-06-07T23:27:55.255Z,100791.49
2019-06-07T23:30:25.746Z,100792.16
2019-06-07T23:32:56.416Z,100796.55
2019-06-07T23:35:27.098Z,100799.12
2019-06-07T23:37:58.027Z,100803.39
2019-06-07T23:40:28.306Z,100808.50
2019-06-07T23:42:59.189Z,100799.53
2019-06-07T23:45:30.035Z,100798.64
2019-06-07T23:48:01.441Z,100810.00
2019-06-07T23:50:32.081Z,100805.55
2019-06-07T23:53:02.698Z,100810.88
2019-06-07T23:55:33.038Z,100805.40
2019-06-07T23:58:03.458Z,100803.48
